Time;durP1;ratioP1;P1;durP2;ratioP2;P2;SDS_P1;SDS_P2;PMS_P1;PMS_P2;Temp;Humidity;BMP_temperature;BMP_pressure;BME280_temperature;BME280_humidity;BME280_pressure;Samples;Min_cycle;Max_cycle;Signal;HPM_P1;HPM_P2
2021/08/15 00:00:38;;;;;;;22.60;13.18;;;;;;;16.92;72.44;101520.91;5004293;28;20388;-74
2021/08/15 00:03:04;;;;;;;21.30;13.82;;;;;;;16.88;72.37;101519.66;4993932;28;20034;-75
2021/08/15 00:05:29;;;;;;;27.00;14.90;;;;;;;16.82;72.84;101519.50;4998517;28;20048;-75
2021/08/15 00:07:55;;;;;;;22.50;14.73;;;;;;;16.80;72.92;101521.50;4995973;28;20030;-75
2021/08/15 00:10:21;;;;;;;22.75;14.38;;;;;;;16.79;72.82;101515.44;4996909;28;20034;-75
2021/08/15 00:12:46;;;;;;;26.50;13.48;;;;;;;16.82;72.81;101515.13;4998148;28;20097;-75
2021/08/15 00:15:13;;;;;;;24.83;14.32;;;;;;;16.83;72.89;101516.75;4995098;28;20117;-74
2021/08/15 00:17:40;;;;;;;27.15;14.88;;;;;;;16.83;73.08;101503.66;5000220;28;20038;-76
2021/08/15 00:20:07;;;;;;;25.92;14.57;;;;;;;16.83;73.17;101502.84;4975834;28;20408;-75
2021/08/15 00:22:37;;;;;;;23.63;13.85;;;;;;;16.79;73.25;101501.56;4987794;28;20038;-76
2021/08/15 00:25:02;;;;;;;24.10;13.50;;;;;;;16.65;73.33;101496.13;4972343;28;20555;-75
2021/08/15 00:27:28;;;;;;;18.17;12.45;;;;;;;16.54;73.53;101491.31;4997051;28;20037;-74
2021/08/15 00:29:53;;;;;;;28.05;14.55;;;;;;;16.44;73.71;101491.56;4968699;28;20068;-74
2021/08/15 00:32:19;;;;;;;28.30;14.85;;;;;;;16.36;74.11;101494.25;5002651;28;20030;-75
2021/08/15 00:34:44;;;;;;;23.73;14.43;;;;;;;16.31;74.17;101488.72;4986244;28;20033;-74
2021/08/15 00:37:10;;;;;;;24.30;14.30;;;;;;;16.27;74.40;101488.28;4995645;28;20037;-74
2021/08/15 00:39:35;;;;;;;27.60;15.93;;;;;;;16.26;74.37;101491.91;5006184;28;20440;-75
2021/08/15 00:42:01;;;;;;;28.08;17.40;;;;;;;16.22;74.43;101485.41;5004619;28;20044;-75
2021/08/15 00:44:27;;;;;;;27.52;16.58;;;;;;;16.19;74.61;101488.34;4993202;28;20033;-75
2021/08/15 00:46:53;;;;;;;25.65;16.65;;;;;;;16.17;74.75;101486.91;4997279;28;20041;-75
2021/08/15 00:49:19;;;;;;;27.67;16.25;;;;;;;16.11;75.01;101491.84;5007409;28;20029;-75
2021/08/15 00:51:44;;;;;;;26.65;16.80;;;;;;;16.09;75.10;101487.78;4988994;28;20029;-74
2021/08/15 00:54:10;;;;;;;26.45;16.55;;;;;;;16.04;75.07;101482.28;4986904;28;20026;-74
2021/08/15 00:56:35;;;;;;;22.50;14.93;;;;;;;16.03;75.14;101478.84;4990753;28;20574;-74
2021/08/15 00:59:04;;;;;;;26.83;16.40;;;;;;;16.05;75.06;101473.41;5003071;28;20380;-75
2021/08/15 01:01:34;;;;;;;27.80;16.58;;;;;;;16.09;74.76;101478.13;4984210;28;20392;-75
2021/08/15 01:04:03;;;;;;;29.17;15.80;;;;;;;16.09;74.68;101470.28;4990930;28;20114;-74
2021/08/15 01:06:34;;;;;;;23.98;14.77;;;;;;;16.08;74.95;101470.47;4995354;28;20491;-75
2021/08/15 01:09:02;;;;;;;31.13;16.27;;;;;;;16.04;74.82;101467.38;4985642;28;20455;-75
2021/08/15 01:11:33;;;;;;;25.83;15.50;;;;;;;15.99;74.77;101466.28;4990107;28;20029;-75
2021/08/15 01:14:05;;;;;;;23.65;15.30;;;;;;;15.96;74.92;101462.22;4972968;28;20034;-75
2021/08/15 01:16:31;;;;;;;25.08;15.50;;;;;;;15.95;75.08;101453.56;4996131;28;20032;-75
2021/08/15 01:18:57;;;;;;;25.10;14.70;;;;;;;15.99;74.57;101450.59;5001502;28;20037;-75
2021/08/15 01:21:22;;;;;;;24.08;14.95;;;;;;;15.96;74.70;101455.19;4980535;28;20058;-75
2021/08/15 01:23:48;;;;;;;25.40;14.57;;;;;;;15.96;75.03;101449.16;4988571;28;20447;-75
2021/08/15 01:26:16;;;;;;;22.42;14.07;;;;;;;15.98;75.08;101454.19;5007101;28;20041;-75
2021/08/15 01:28:41;;;;;;;22.67;13.75;;;;;;;16.00;74.89;101445.19;4994910;28;20042;-75
2021/08/15 01:31:08;;;;;;;22.70;14.38;;;;;;;16.02;74.95;101445.81;4999056;28;20092;-74
2021/08/15 01:33:36;;;;;;;24.90;14.18;;;;;;;16.03;74.66;101441.38;4988495;28;20342;-75
2021/08/15 01:36:03;;;;;;;20.52;14.00;;;;;;;16.01;74.81;101444.22;4988882;28;20521;-75
2021/08/15 01:38:32;;;;;;;23.52;14.57;;;;;;;15.96;75.18;101436.06;4989380;28;20067;-75
2021/08/15 01:40:58;;;;;;;21.25;13.57;;;;;;;15.93;75.46;101436.41;5005165;28;20038;-75
2021/08/15 01:43:25;;;;;;;22.15;13.45;;;;;;;15.92;75.33;101434.78;5015463;28;20452;-74
2021/08/15 01:45:51;;;;;;;28.52;14.07;;;;;;;15.89;75.44;101429.91;4977228;28;20026;-75
2021/08/15 01:48:20;;;;;;;21.45;13.18;;;;;;;15.88;75.41;101428.25;4996043;28;20029;-75
2021/08/15 01:50:46;;;;;;;23.70;12.77;;;;;;;15.87;75.25;101426.66;4966821;28;20030;-76
2021/08/15 01:53:15;;;;;;;21.98;13.02;;;;;;;15.86;75.22;101422.41;4989074;28;20547;-78
2021/08/15 01:55:41;;;;;;;25.42;14.20;;;;;;;15.86;75.14;101430.25;4979366;28;20324;-76
2021/08/15 01:58:10;;;;;;;18.90;12.38;;;;;;;15.86;75.15;101425.00;4989409;28;20029;-77
2021/08/15 02:00:36;;;;;;;23.10;11.73;;;;;;;15.82;75.26;101419.31;5006662;28;20044;-76
2021/08/15 02:03:02;;;;;;;18.90;11.23;;;;;;;15.80;75.48;101425.72;5009059;28;20034;-77
2021/08/15 02:05:28;;;;;;;20.88;12.07;;;;;;;15.79;75.52;101418.88;4998504;28;20053;-76
2021/08/15 02:07:56;;;;;;;18.90;12.07;;;;;;;15.77;75.40;101421.66;4991945;28;20049;-76
2021/08/15 02:10:27;;;;;;;25.15;13.27;;;;;;;15.70;75.73;101421.50;4996460;28;20133;-76
2021/08/15 02:12:53;;;;;;;20.55;12.35;;;;;;;15.64;76.11;101421.41;4990882;28;20034;-76
2021/08/15 02:15:19;;;;;;;24.35;13.48;;;;;;;15.59;76.23;101427.16;4990017;28;20125;-76
2021/08/15 02:17:46;;;;;;;22.40;12.68;;;;;;;15.56;76.26;101420.47;4989204;28;20429;-76
2021/08/15 02:20:14;;;;;;;21.08;12.57;;;;;;;15.55;76.36;101418.84;4993561;28;20506;-76
2021/08/15 02:22:40;;;;;;;18.50;12.43;;;;;;;15.52;76.54;101413.97;4990272;28;20033;-76
2021/08/15 02:25:09;;;;;;;18.30;11.07;;;;;;;15.55;76.43;101415.41;4989192;28;20492;-77
2021/08/15 02:27:35;;;;;;;23.52;13.50;;;;;;;15.55;76.11;101415.41;4992089;28;20490;-76
2021/08/15 02:30:02;;;;;;;27.67;11.73;;;;;;;15.55;75.99;101408.38;5005800;28;20030;-77
2021/08/15 02:32:27;;;;;;;22.20;12.07;;;;;;;15.57;75.80;101416.84;4966861;28;20049;-76
2021/08/15 02:34:53;;;;;;;20.60;11.43;;;;;;;15.54;75.90;101409.38;4979835;28;20030;-78
2021/08/15 02:37:19;;;;;;;17.98;10.50;;;;;;;15.51;76.08;101411.53;5004199;28;20034;-76
2021/08/15 02:39:44;;;;;;;19.27;11.18;;;;;;;15.46;76.43;101398.16;4986373;28;20121;-76
2021/08/15 02:42:10;;;;;;;18.23;11.43;;;;;;;15.45;76.32;101394.75;4992496;28;20042;-76
2021/08/15 02:44:36;;;;;;;25.75;12.35;;;;;;;15.44;76.43;101390.50;4995929;28;20033;-76
2021/08/15 02:47:01;;;;;;;24.75;11.43;;;;;;;15.31;77.22;101390.25;5004641;28;20038;-77
2021/08/15 02:49:27;;;;;;;19.40;10.93;;;;;;;15.25;77.53;101389.13;4988984;28;20065;-76
2021/08/15 02:51:52;;;;;;;20.65;10.60;;;;;;;15.20;77.66;101391.47;4981574;28;20027;-76
2021/08/15 02:54:18;;;;;;;21.20;10.65;;;;;;;15.21;77.61;101382.63;4997502;28;20052;-77
2021/08/15 02:56:43;;;;;;;24.13;11.30;;;;;;;15.19;77.61;101382.00;4995141;28;20029;-77
2021/08/15 02:59:10;;;;;;;18.83;10.48;;;;;;;15.19;77.67;101374.97;4999032;28;20061;-77
2021/08/15 03:01:35;;;;;;;21.73;10.98;;;;;;;15.23;77.71;101377.25;4995946;28;20026;-77
2021/08/15 03:04:01;;;;;;;19.33;10.45;;;;;;;15.22;77.61;101371.22;4976610;28;20558;-76
2021/08/15 03:06:26;;;;;;;20.02;10.90;;;;;;;15.23;77.61;101365.00;4980566;28;20042;-76
2021/08/15 03:08:51;;;;;;;22.77;10.25;;;;;;;15.18;77.72;101357.69;4992560;28;20026;-76
2021/08/15 03:11:17;;;;;;;14.25;8.85;;;;;;;15.14;78.20;101359.03;5000797;28;20037;-76
2021/08/15 03:13:44;;;;;;;20.30;9.75;;;;;;;15.15;78.10;101360.63;4993351;28;20030;-77
2021/08/15 03:16:10;;;;;;;18.27;10.48;;;;;;;15.16;77.83;101357.03;4995068;28;20419;-77
2021/08/15 03:18:35;;;;;;;22.00;10.65;;;;;;;15.14;77.44;101361.63;4967551;28;20030;-76
2021/08/15 03:21:01;;;;;;;18.45;9.93;;;;;;;15.10;77.91;101359.53;5003816;28;20040;-77
2021/08/15 03:23:26;;;;;;;18.85;9.10;;;;;;;15.10;77.77;101355.09;4985208;28;20045;-77
2021/08/15 03:25:52;;;;;;;18.35;8.52;;;;;;;15.10;77.66;101357.72;4974778;28;20041;-77
2021/08/15 03:28:17;;;;;;;19.98;9.93;;;;;;;15.11;77.31;101350.72;4990607;28;20060;-77
2021/08/15 03:30:43;;;;;;;20.77;9.80;;;;;;;15.13;77.14;101353.97;5005030;28;20038;-76
2021/08/15 03:33:08;;;;;;;16.48;8.32;;;;;;;15.14;76.97;101355.56;4971242;28;20038;-77
2021/08/15 03:35:34;;;;;;;18.92;9.38;;;;;;;15.12;77.25;101354.94;5003684;28;20032;-77
2021/08/15 03:37:59;;;;;;;23.33;10.93;;;;;;;15.06;77.50;101348.59;5006868;28;20030;-77
2021/08/15 03:40:24;;;;;;;20.83;10.35;;;;;;;14.99;77.84;101348.50;4994839;28;20034;-77
2021/08/15 03:42:50;;;;;;;15.32;8.20;;;;;;;14.97;77.88;101345.25;4969586;28;20042;-77
2021/08/15 03:45:16;;;;;;;21.27;9.20;;;;;;;14.99;77.79;101343.28;5003681;28;20034;-77
2021/08/15 03:47:41;;;;;;;19.58;7.80;;;;;;;14.97;77.44;101336.56;4995725;28;20541;-77
2021/08/15 03:50:07;;;;;;;19.90;9.20;;;;;;;14.93;77.65;101340.50;4993248;28;20042;-77
2021/08/15 03:52:40;;;;;;;14.60;8.35;;;;;;;14.86;77.98;101334.34;4988973;28;20437;-77
2021/08/15 03:55:07;;;;;;;26.13;10.05;;;;;;;14.83;77.96;101332.91;4984234;28;20497;-77
2021/08/15 03:57:33;;;;;;;25.23;8.43;;;;;;;14.79;78.22;101324.59;4989078;28;20478;-77
2021/08/15 03:59:59;;;;;;;21.73;9.00;;;;;;;14.76;78.24;101331.94;4990599;28;20033;-78
2021/08/15 04:02:24;;;;;;;19.45;8.55;;;;;;;14.73;78.48;101324.44;4995509;28;20037;-77
2021/08/15 04:04:50;;;;;;;20.67;9.15;;;;;;;14.71;78.46;101335.09;5001695;28;20085;-77
2021/08/15 04:07:15;;;;;;;17.90;8.93;;;;;;;14.72;78.68;101330.66;4993174;28;20080;-77
2021/08/15 04:09:41;;;;;;;21.23;9.00;;;;;;;14.71;78.53;101329.88;4979016;28;20041;-77
2021/08/15 04:12:06;;;;;;;24.27;10.35;;;;;;;14.70;78.68;101330.84;5003170;28;20046;-77
2021/08/15 04:14:32;;;;;;;20.58;9.13;;;;;;;14.70;78.54;101328.22;4972637;28;20022;-77
2021/08/15 04:16:57;;;;;;;23.80;9.82;;;;;;;14.72;78.48;101341.91;4992626;28;20025;-78
2021/08/15 04:19:22;;;;;;;21.40;9.23;;;;;;;14.72;78.35;101338.50;5002331;28;20038;-78
2021/08/15 04:21:48;;;;;;;21.10;9.82;;;;;;;14.70;78.30;101338.66;4988091;28;20025;-78
2021/08/15 04:24:13;;;;;;;20.83;8.77;;;;;;;14.69;78.41;101346.66;4991717;28;20382;-78
2021/08/15 04:26:43;;;;;;;23.08;8.60;;;;;;;14.71;78.28;101342.91;4977061;28;20022;-79
2021/08/15 04:29:10;;;;;;;19.73;9.98;;;;;;;14.63;78.43;101342.94;4982802;28;20044;-78
2021/08/15 04:31:36;;;;;;;19.83;9.32;;;;;;;14.62;78.57;101343.09;4996379;28;20034;-78
2021/08/15 04:34:02;;;;;;;18.38;8.68;;;;;;;14.60;78.41;101335.47;4996024;28;21238;-78
2021/08/15 04:36:27;;;;;;;20.35;8.35;;;;;;;14.55;78.71;101325.47;4995966;28;20040;-78
2021/08/15 04:38:53;;;;;;;16.25;8.98;;;;;;;14.52;78.95;101333.66;4997001;28;20077;-78
2021/08/15 04:41:18;;;;;;;20.95;8.65;;;;;;;14.52;79.01;101333.66;5003601;28;20412;-77
2021/08/15 04:43:44;;;;;;;18.35;8.80;;;;;;;14.52;79.13;101340.66;4991538;28;20038;-78
2021/08/15 04:46:09;;;;;;;19.10;7.85;;;;;;;14.52;79.18;101325.84;4987193;28;20104;-79
2021/08/15 04:48:35;;;;;;;16.23;8.93;;;;;;;14.56;79.15;101319.28;4979658;28;20034;-78
2021/08/15 04:51:01;;;;;;;18.27;8.48;;;;;;;14.63;78.92;101323.84;4979399;28;20092;-79
2021/08/15 04:53:27;;;;;;;19.30;8.05;;;;;;;14.66;78.91;101326.13;4990166;28;20038;-78
2021/08/15 04:55:53;;;;;;;43.05;10.43;;;;;;;14.69;78.90;101325.78;4991979;28;20483;-78
2021/08/15 04:58:18;;;;;;;27.45;8.95;;;;;;;14.74;79.38;101323.47;5003785;28;20042;-78
2021/08/15 05:00:44;;;;;;;17.40;8.23;;;;;;;14.75;79.56;101331.16;4983214;28;20046;-78
2021/08/15 05:03:11;;;;;;;24.65;8.88;;;;;;;14.79;79.83;101331.63;4997834;28;20041;-78
2021/08/15 05:05:39;;;;;;;15.65;8.45;;;;;;;14.78;79.82;101328.19;4999285;28;20030;-77
2021/08/15 05:08:05;;;;;;;16.67;8.65;;;;;;;14.83;80.04;101329.47;4987168;28;20080;-78
2021/08/15 05:10:30;;;;;;;24.27;9.32;;;;;;;14.90;80.40;101330.41;4983547;28;20073;-78
2021/08/15 05:12:56;;;;;;;29.85;12.15;;;;;;;14.92;80.75;101334.50;4969101;28;20026;-76
2021/08/15 05:15:21;;;;;;;19.42;8.70;;;;;;;14.93;80.52;101335.28;4997931;28;20045;-76
2021/08/15 05:17:47;;;;;;;15.02;7.78;;;;;;;14.92;80.69;101338.91;5005245;28;20089;-76
2021/08/15 05:20:12;;;;;;;17.33;7.97;;;;;;;14.94;80.92;101335.13;5012531;28;20041;-76
2021/08/15 05:22:38;;;;;;;18.63;8.57;;;;;;;14.99;80.84;101332.81;4984936;28;20087;-77
2021/08/15 05:25:05;;;;;;;18.10;8.45;;;;;;;15.05;81.09;101331.31;4995476;28;20096;-76
2021/08/15 05:27:30;;;;;;;21.15;10.23;;;;;;;15.08;80.94;101332.75;5008444;28;20364;-76
2021/08/15 05:29:56;;;;;;;16.90;9.07;;;;;;;15.13;80.89;101327.84;4971341;28;20034;-76
2021/08/15 05:32:21;;;;;;;26.17;10.07;;;;;;;15.23;81.10;101325.00;4984564;28;20049;-75
2021/08/15 05:34:47;;;;;;;17.95;9.05;;;;;;;15.27;81.24;101321.03;5002187;28;20502;-75
2021/08/15 05:37:12;;;;;;;25.40;9.48;;;;;;;15.29;80.81;101322.50;4991130;28;20022;-75
2021/08/15 05:39:38;;;;;;;22.00;9.00;;;;;;;15.31;80.59;101327.53;5005056;28;20076;-75
2021/08/15 05:42:03;;;;;;;19.08;8.45;;;;;;;15.41;80.04;101325.53;4993714;28;20553;-75
2021/08/15 05:44:29;;;;;;;20.63;8.38;;;;;;;15.41;80.33;101324.69;5006181;28;20041;-74
2021/08/15 05:46:54;;;;;;;19.98;7.65;;;;;;;15.53;80.16;101331.16;4989146;28;20025;-74
2021/08/15 05:49:20;;;;;;;26.25;9.23;;;;;;;15.54;79.77;101333.59;4993638;28;20046;-77
2021/08/15 05:51:45;;;;;;;17.52;7.85;;;;;;;15.57;79.16;101325.38;5007582;28;20041;-75
2021/08/15 05:54:11;;;;;;;18.70;7.47;;;;;;;15.58;79.59;101321.00;4992926;28;20030;-76
2021/08/15 05:56:37;;;;;;;18.73;8.38;;;;;;;15.57;79.74;101325.38;4987187;28;20395;-75
2021/08/15 05:59:03;;;;;;;17.35;8.43;;;;;;;15.63;80.00;101326.47;5005401;28;20097;-75
2021/08/15 06:01:33;;;;;;;23.88;9.35;;;;;;;15.71;79.83;101320.38;4984609;28;20048;-77
2021/08/15 06:04:00;;;;;;;20.77;8.93;;;;;;;16.03;78.99;101316.69;4962582;28;20489;-76
2021/08/15 06:06:25;;;;;;;17.73;7.72;;;;;;;16.19;78.61;101309.66;4991062;28;20034;-76
2021/08/15 06:08:50;;;;;;;18.58;7.95;;;;;;;16.37;78.02;101312.72;4977452;28;20026;-77
2021/08/15 06:11:16;;;;;;;19.33;7.28;;;;;;;16.96;75.95;101306.56;4982202;28;20431;-76
2021/08/15 06:13:41;;;;;;;18.75;7.47;;;;;;;17.24;73.77;101308.47;5002538;28;20053;-78
2021/08/15 06:16:07;;;;;;;19.88;7.47;;;;;;;17.49;73.13;101295.75;4965062;28;20052;-76
2021/08/15 06:18:32;;;;;;;16.45;7.38;;;;;;;17.18;73.41;101291.69;5006439;28;20480;-78
2021/08/15 06:20:58;;;;;;;13.18;6.60;;;;;;;17.51;73.17;101291.13;4984402;28;20022;-78
2021/08/15 06:23:23;;;;;;;13.95;6.72;;;;;;;17.75;71.75;101296.97;5001578;28;20446;-78
2021/08/15 06:25:49;;;;;;;17.27;6.10;;;;;;;17.86;71.60;101293.84;5001140;28;20041;-76
2021/08/15 06:28:14;;;;;;;16.65;7.30;;;;;;;18.09;70.82;101285.69;4981670;28;20716;-75
2021/08/15 06:30:39;;;;;;;14.65;6.80;;;;;;;18.14;70.55;101285.94;4955617;28;1093117;-76
2021/08/15 06:33:06;;;;;;;16.92;6.50;;;;;;;18.22;70.16;101282.34;5005160;28;20046;-77
2021/08/15 06:35:31;;;;;;;15.38;6.43;;;;;;;18.03;71.02;101289.09;4988961;28;20532;-75
2021/08/15 06:37:57;;;;;;;16.02;6.28;;;;;;;18.02;71.47;101296.16;4990603;28;20510;-76
2021/08/15 06:40:28;;;;;;;14.35;5.97;;;;;;;17.97;71.95;101290.69;4986946;28;20036;-77
2021/08/15 06:43:03;;;;;;;14.02;5.45;;;;;;;18.04;71.72;101294.13;5008179;28;20421;-76
2021/08/15 06:45:29;;;;;;;11.48;4.90;;;;;;;18.05;72.03;101293.16;4994861;28;20156;-77
2021/08/15 06:47:54;;;;;;;14.93;6.25;;;;;;;18.13;71.19;101284.31;5001994;28;20128;-78
2021/08/15 06:50:20;;;;;;;15.82;5.57;;;;;;;18.07;71.63;101291.13;4980765;28;20373;-77
2021/08/15 06:52:45;;;;;;;8.02;4.60;;;;;;;18.09;71.80;101283.06;5019620;28;20065;-77
2021/08/15 06:55:11;;;;;;;17.33;5.53;;;;;;;18.12;71.43;101276.63;4995408;28;20045;-76
2021/08/15 06:57:37;;;;;;;17.08;6.32;;;;;;;18.16;71.23;101277.84;4985169;28;20049;-78
2021/08/15 07:00:05;;;;;;;13.60;5.40;;;;;;;18.19;71.23;101274.84;4989224;28;20025;-79
2021/08/15 07:02:35;;;;;;;16.80;5.90;;;;;;;18.19;70.83;101283.53;5015289;28;20022;-76
2021/08/15 07:05:01;;;;;;;11.50;5.28;;;;;;;18.27;71.08;101280.75;5000153;28;20042;-76
2021/08/15 07:07:26;;;;;;;12.57;5.00;;;;;;;18.73;69.74;101279.28;4993514;28;20049;-77
2021/08/15 07:09:51;;;;;;;12.07;5.55;;;;;;;19.15;67.56;101277.34;5015164;28;20038;-77
2021/08/15 07:12:17;;;;;;;15.50;5.25;;;;;;;19.35;67.88;101273.94;4982364;28;20033;-80
2021/08/15 07:14:42;;;;;;;14.68;6.32;;;;;;;19.64;66.93;101281.38;4982194;28;20076;-78
2021/08/15 07:17:08;;;;;;;15.65;5.35;;;;;;;20.23;64.63;101279.66;5009684;28;20055;-76
2021/08/15 07:19:33;;;;;;;12.45;4.78;;;;;;;20.88;62.72;101270.84;4982153;28;20160;-78
2021/08/15 07:21:59;;;;;;;10.45;4.80;;;;;;;21.60;60.71;101281.03;4999621;28;20096;-76
2021/08/15 07:24:24;;;;;;;9.10;4.85;;;;;;;22.27;59.40;101265.31;5000153;28;20069;-75
2021/08/15 07:26:52;;;;;;;17.38;4.95;;;;;;;22.66;58.20;101255.25;5003894;28;20037;-79
2021/08/15 07:29:18;;;;;;;10.45;4.65;;;;;;;22.58;56.94;101263.50;4985636;28;20452;-77
2021/08/15 07:31:43;;;;;;;13.90;5.53;;;;;;;22.80;57.27;101258.50;5003493;28;20030;-77
2021/08/15 07:34:09;;;;;;;11.88;5.50;;;;;;;23.22;56.84;101260.31;4972320;28;20120;-77
2021/08/15 07:36:34;;;;;;;12.20;4.85;;;;;;;23.10;55.62;101255.03;4974572;28;20038;-77
2021/08/15 07:39:00;;;;;;;16.10;4.97;;;;;;;23.52;55.78;101244.31;4976623;28;20030;-77
2021/08/15 07:41:25;;;;;;;13.15;4.53;;;;;;;23.60;54.56;101244.00;4973475;28;20685;-78
2021/08/15 07:43:51;;;;;;;13.85;5.00;;;;;;;23.88;54.46;101245.94;4967421;28;20034;-77
2021/08/15 07:46:16;;;;;;;12.90;5.63;;;;;;;24.18;53.92;101241.47;4995351;28;20029;-77
2021/08/15 07:48:43;;;;;;;9.05;4.20;;;;;;;24.67;53.12;101234.66;4998899;28;20037;-77
2021/08/15 07:51:08;;;;;;;12.05;4.25;;;;;;;25.13;50.50;101239.09;4989489;28;20038;-77
2021/08/15 07:53:34;;;;;;;12.52;4.50;;;;;;;25.39;52.09;101241.13;5000768;28;20026;-75
2021/08/15 07:56:00;;;;;;;15.43;5.20;;;;;;;25.89;49.91;101239.34;5012358;28;20454;-76
2021/08/15 07:58:26;;;;;;;12.40;4.43;;;;;;;25.83;49.51;101225.22;4984913;28;20030;-77
2021/08/15 08:00:52;;;;;;;12.65;4.50;;;;;;;25.45;50.38;101232.19;4988372;28;20385;-76
2021/08/15 08:03:18;;;;;;;12.65;4.20;;;;;;;25.70;49.53;101214.97;4989976;28;20496;-78
2021/08/15 08:05:45;;;;;;;8.95;4.07;;;;;;;25.58;50.00;101216.91;4996027;28;20061;-78
2021/08/15 08:08:11;;;;;;;9.45;3.75;;;;;;;25.34;50.66;101217.16;4983721;28;20042;-76
2021/08/15 08:10:37;;;;;;;9.93;4.40;;;;;;;25.36;51.37;101216.91;4998296;28;20042;-76
2021/08/15 08:13:05;;;;;;;8.95;3.85;;;;;;;25.26;51.80;101220.25;4999628;28;20026;-77
2021/08/15 08:15:30;;;;;;;12.15;3.72;;;;;;;25.06;53.19;101218.06;4986095;28;20030;-77
2021/08/15 08:17:56;;;;;;;7.60;3.38;;;;;;;24.86;53.58;101221.19;4991522;28;20030;-77
2021/08/15 08:20:21;;;;;;;7.90;3.65;;;;;;;24.49;54.77;101233.03;4990823;28;20387;-75
2021/08/15 08:22:48;;;;;;;7.22;3.42;;;;;;;24.24;55.36;101222.78;4983807;28;20034;-75
2021/08/15 08:25:15;;;;;;;10.82;3.05;;;;;;;24.13;55.87;101207.75;5001473;28;20492;-75
2021/08/15 08:27:40;;;;;;;6.78;3.30;;;;;;;23.87;56.35;101220.47;5007053;28;20096;-75
2021/08/15 08:30:07;;;;;;;11.20;4.00;;;;;;;23.86;55.17;101228.66;4995326;28;20046;-76
2021/08/15 08:32:33;;;;;;;5.20;2.80;;;;;;;23.72;56.02;101233.38;5007988;28;20069;-76
2021/08/15 08:34:58;;;;;;;7.05;2.90;;;;;;;23.67;56.57;101226.13;4976958;28;20025;-76
2021/08/15 08:37:24;;;;;;;6.22;3.08;;;;;;;23.73;56.91;101221.75;5006649;28;20529;-76
2021/08/15 08:39:49;;;;;;;9.40;3.45;;;;;;;23.73;56.80;101211.16;4976160;28;20509;-76
2021/08/15 08:42:15;;;;;;;8.48;3.83;;;;;;;23.68;56.98;101213.72;5006604;28;20048;-76
2021/08/15 08:44:40;;;;;;;9.73;4.40;;;;;;;23.69;57.12;101218.75;5002271;28;20034;-78
2021/08/15 08:47:09;;;;;;;8.75;3.65;;;;;;;23.84;56.70;101206.91;4993275;28;20121;-77
2021/08/15 08:49:38;;;;;;;11.23;3.83;;;;;;;24.37;55.63;101216.38;5002593;28;20056;-76
2021/08/15 08:52:05;;;;;;;11.52;3.88;;;;;;;25.08;54.51;101213.31;4988489;28;20057;-78
2021/08/15 08:54:31;;;;;;;9.73;4.00;;;;;;;25.48;53.22;101206.97;4986302;28;20042;-76
2021/08/15 08:56:58;;;;;;;9.73;3.53;;;;;;;26.07;51.84;101206.38;5000386;28;20492;-77
2021/08/15 08:59:24;;;;;;;14.45;3.47;;;;;;;26.50;48.99;101203.84;4987662;28;20068;-75
2021/08/15 09:01:50;;;;;;;7.95;3.03;;;;;;;26.76;48.92;101208.34;5006895;28;20030;-77
2021/08/15 09:04:16;;;;;;;5.35;2.85;;;;;;;26.88;47.93;101204.69;5001784;28;20038;-75
2021/08/15 09:06:41;;;;;;;5.88;3.17;;;;;;;27.03;48.50;101193.38;4991893;28;20030;-76
2021/08/15 09:09:18;;;;;;;5.05;2.67;;;;;;;27.32;47.48;101189.31;4964196;28;20065;-76
2021/08/15 09:11:47;;;;;;;10.38;3.03;;;;;;;27.30;47.05;101191.44;4980184;28;20026;-77
2021/08/15 09:14:26;;;;;;;6.93;3.17;;;;;;;26.95;48.47;101192.00;4991538;28;20069;-75
2021/08/15 09:17:00;;;;;;;6.22;2.95;;;;;;;26.70;48.04;101190.75;4995884;28;20034;-76
2021/08/15 09:19:29;;;;;;;10.27;3.10;;;;;;;26.82;48.57;101190.56;4993868;28;20025;-76
2021/08/15 09:22:09;;;;;;;7.15;2.78;;;;;;;27.12;47.74;101181.97;4991858;28;20282;-78
2021/08/15 09:24:55;;;;;;;8.32;3.15;;;;;;;27.48;47.22;101182.22;4994939;28;20447;-77
2021/08/15 09:27:33;;;;;;;7.43;3.08;;;;;;;27.81;46.92;101182.84;4995592;28;20061;-76
2021/08/15 09:30:13;;;;;;;5.70;2.53;;;;;;;28.32;45.30;101179.47;4994231;28;20034;-76
2021/08/15 09:32:57;;;;;;;8.48;3.05;;;;;;;28.65;43.95;101177.34;4993785;28;20034;-78
2021/08/15 09:35:31;;;;;;;10.00;3.33;;;;;;;28.48;43.75;101177.59;4991657;28;20440;-76
2021/08/15 09:37:58;;;;;;;6.75;2.80;;;;;;;28.50;43.69;101186.97;4993683;28;20052;-76
2021/08/15 09:40:30;;;;;;;7.28;2.90;;;;;;;28.56;44.49;101185.13;4976019;28;20029;-75
2021/08/15 09:42:55;;;;;;;5.57;2.53;;;;;;;28.44;42.85;101180.00;5009813;28;20041;-78
2021/08/15 09:45:35;;;;;;;6.03;2.63;;;;;;;28.66;43.20;101177.09;4989058;28;20030;-76
2021/08/15 09:48:15;;;;;;;8.18;2.53;;;;;;;28.89;43.06;101175.72;4991147;28;20048;-75
2021/08/15 09:50:41;;;;;;;8.15;3.25;;;;;;;28.99;44.35;101166.91;4976900;28;20038;-79
2021/08/15 09:53:06;;;;;;;7.53;2.67;;;;;;;29.18;43.85;101167.16;4977886;28;20042;-76
2021/08/15 09:55:45;;;;;;;8.20;2.70;;;;;;;29.43;42.66;101170.81;4986698;28;20041;-76
2021/08/15 09:58:17;;;;;;;9.05;2.75;;;;;;;29.26;41.97;101169.25;4972887;28;20559;-78
2021/08/15 10:00:43;;;;;;;4.10;2.40;;;;;;;29.27;41.02;101165.53;5008559;28;20033;-78
2021/08/15 10:03:09;;;;;;;7.72;2.70;;;;;;;29.20;43.00;101165.00;4996216;28;20038;-76
2021/08/15 10:05:36;;;;;;;12.95;2.72;;;;;;;29.14;41.02;101154.59;4992960;28;20149;-76
2021/08/15 10:08:02;;;;;;;5.75;2.45;;;;;;;29.42;42.18;101159.31;4994148;28;20081;-76
2021/08/15 10:10:28;;;;;;;7.88;2.80;;;;;;;29.50;41.06;101161.41;5004308;28;20101;-76
2021/08/15 10:12:54;;;;;;;8.98;2.75;;;;;;;29.40;41.23;101157.97;5003571;28;20546;-76
2021/08/15 10:15:20;;;;;;;6.35;3.03;;;;;;;29.44;41.06;101165.19;5005460;28;20042;-76
2021/08/15 10:17:50;;;;;;;9.05;3.13;;;;;;;29.68;41.31;101153.84;4983222;28;20080;-77
2021/08/15 10:20:25;;;;;;;7.47;2.78;;;;;;;29.26;42.89;101157.78;4987718;28;20673;-77
2021/08/15 10:22:51;;;;;;;7.70;3.53;;;;;;;28.90;41.95;101155.19;5006147;28;20034;-77
2021/08/15 10:25:34;;;;;;;8.88;2.58;;;;;;;28.99;41.75;101150.91;4997640;28;20064;-75
2021/08/15 10:28:00;;;;;;;8.15;2.92;;;;;;;28.67;43.35;101160.03;4994350;28;20037;-76
2021/08/15 10:30:31;;;;;;;9.82;2.67;;;;;;;28.53;43.23;101142.97;4992807;28;20029;-77
2021/08/15 10:32:57;;;;;;;5.95;2.60;;;;;;;28.45;44.48;101148.81;5006753;28;20109;-77
2021/08/15 10:35:24;;;;;;;10.95;2.80;;;;;;;28.67;44.54;101145.88;5002245;28;20053;-78
2021/08/15 10:38:01;;;;;;;8.82;2.80;;;;;;;28.81;43.44;101144.25;4998173;28;20029;-76
2021/08/15 10:40:53;;;;;;;8.70;3.55;;;;;;;29.36;42.33;101146.25;4990868;28;20393;-78
2021/08/15 10:43:21;;;;;;;8.93;3.05;;;;;;;29.44;41.16;101143.00;4993339;28;20241;-77
2021/08/15 10:46:07;;;;;;;8.70;2.08;;;;;;;29.10;40.63;101128.44;5009856;28;20033;-76
2021/08/15 10:48:32;;;;;;;7.93;2.60;;;;;;;29.10;41.63;101133.78;4982790;28;20046;-76
2021/08/15 10:51:00;;;;;;;6.07;2.50;;;;;;;29.00;39.92;101130.34;4973921;28;20052;-77
2021/08/15 10:53:26;;;;;;;5.80;2.80;;;;;;;29.08;40.03;101132.44;5014646;28;20030;-76
2021/08/15 10:55:58;;;;;;;5.35;2.63;;;;;;;28.90;39.38;101133.84;5005535;28;20124;-76
2021/08/15 10:58:47;;;;;;;8.07;2.78;;;;;;;28.70;41.00;101137.34;5007220;28;20034;-76
2021/08/15 11:01:15;;;;;;;7.22;3.03;;;;;;;28.97;40.36;101128.22;4985612;28;20046;-77
2021/08/15 11:03:46;;;;;;;4.57;2.03;;;;;;;29.00;40.51;101125.00;4987879;28;20107;-76
2021/08/15 11:06:30;;;;;;;8.15;2.80;;;;;;;28.91;40.72;101125.56;4983865;28;20041;-75
2021/08/15 11:08:57;;;;;;;9.35;3.80;;;;;;;28.62;39.62;101121.91;5013509;28;20044;-76
2021/08/15 11:11:27;;;;;;;9.68;2.60;;;;;;;28.58;41.43;101128.84;5003402;28;20174;-77
2021/08/15 11:14:17;;;;;;;8.43;2.83;;;;;;;28.37;41.76;101126.16;4984501;28;20068;-75
2021/08/15 11:17:16;;;;;;;5.38;2.83;;;;;;;28.12;41.92;101125.09;4981923;28;20120;-78